createdAt,value
2022-11-12T00:01:10.760Z,0.80
2022-11-12T00:03:38.899Z,1.27
2022-11-12T00:06:08.494Z,1.17
2022-11-12T00:08:37.518Z,0.73
2022-11-12T00:11:05.953Z,0.80
2022-11-12T00:13:33.943Z,1.10
2022-11-12T00:16:01.973Z,0.60
2022-11-12T00:18:30.005Z,1.00
2022-11-12T00:20:58.121Z,0.90
2022-11-12T00:23:27.412Z,0.70
2022-11-12T00:26:02.183Z,0.63
2022-11-12T00:28:34.804Z,0.60
2022-11-12T00:31:10.385Z,0.40
2022-11-12T00:33:41.766Z,0.83
2022-11-12T00:36:10.140Z,0.90
2022-11-12T00:38:39.466Z,0.60
2022-11-12T00:41:07.584Z,0.83
2022-11-12T00:43:35.530Z,0.60
2022-11-12T00:46:03.713Z,1.27
2022-11-12T00:48:31.688Z,0.90
2022-11-12T00:51:04.260Z,0.53
2022-11-12T00:53:32.606Z,1.07
2022-11-12T00:56:06.848Z,0.80
2022-11-12T00:58:36.463Z,1.23
2022-11-12T01:01:09.410Z,0.63
2022-11-12T01:03:37.731Z,1.30
2022-11-12T01:06:07.019Z,0.63
2022-11-12T01:08:35.321Z,0.63
2022-11-12T01:11:09.374Z,0.63
2022-11-12T01:13:42.862Z,0.67
2022-11-12T01:16:14.518Z,0.90
2022-11-12T01:18:43.354Z,0.73
2022-11-12T01:21:11.580Z,0.60
2022-11-12T01:23:41.457Z,0.70
2022-11-12T01:26:13.177Z,0.67
2022-11-12T01:28:41.640Z,1.07
2022-11-12T01:31:15.023Z,0.63
2022-11-12T01:33:44.324Z,0.90
2022-11-12T01:36:12.858Z,0.60
2022-11-12T01:38:42.250Z,0.67
2022-11-12T01:41:13.530Z,0.70
2022-11-12T01:43:41.810Z,0.60
2022-11-12T01:46:18.467Z,0.77
2022-11-12T01:48:51.015Z,0.80
2022-11-12T01:51:22.396Z,0.77
2022-11-12T01:53:58.100Z,1.10
2022-11-12T01:56:30.482Z,0.77
2022-11-12T01:59:03.487Z,0.70
2022-11-12T02:01:31.738Z,0.60
2022-11-12T02:04:00.164Z,0.87
2022-11-12T02:06:28.199Z,0.50
2022-11-12T02:08:56.624Z,0.60
2022-11-12T02:11:24.562Z,0.60
2022-11-12T02:14:01.416Z,0.97
2022-11-12T02:16:32.733Z,0.87
2022-11-12T02:19:01.042Z,0.60
2022-11-12T02:21:30.965Z,0.70
2022-11-12T02:24:00.378Z,0.63
2022-11-12T02:26:32.740Z,0.50
2022-11-12T02:29:01.114Z,0.70
2022-11-12T02:31:29.123Z,1.03
2022-11-12T02:33:57.399Z,0.90
2022-11-12T02:36:25.710Z,0.60
2022-11-12T02:38:55.098Z,0.70
2022-11-12T02:41:23.312Z,0.80
2022-11-12T02:43:51.257Z,0.70
2022-11-12T02:46:19.303Z,0.60
2022-11-12T02:48:47.279Z,0.60
2022-11-12T02:51:15.263Z,0.97
2022-11-12T02:53:43.197Z,0.70
2022-11-12T02:56:12.498Z,1.13
2022-11-12T02:58:40.503Z,0.60
2022-11-12T03:01:08.499Z,0.70
2022-11-12T03:03:36.474Z,0.90
2022-11-12T03:06:04.616Z,0.50
2022-11-12T03:08:32.557Z,1.20
2022-11-12T03:11:00.495Z,0.90
2022-11-12T03:13:29.899Z,0.60
2022-11-12T03:16:00.934Z,1.60
2022-11-12T03:18:29.226Z,0.87
2022-11-12T03:20:57.576Z,1.00
2022-11-12T03:23:27.489Z,1.90
2022-11-12T03:25:55.615Z,1.00
2022-11-12T03:28:23.767Z,0.60
2022-11-12T03:30:53.255Z,0.60
2022-11-12T03:33:21.219Z,0.60
2022-11-12T03:35:49.189Z,1.00
2022-11-12T03:38:17.154Z,0.90
2022-11-12T03:40:45.109Z,0.80
2022-11-12T03:43:13.046Z,1.30
2022-11-12T03:45:41.011Z,0.50
2022-11-12T03:48:10.311Z,0.80
2022-11-12T03:50:38.294Z,0.83
2022-11-12T03:53:06.246Z,0.60
2022-11-12T03:55:34.203Z,1.10
2022-11-12T03:58:02.126Z,0.40
2022-11-12T04:00:31.550Z,1.33
2022-11-12T04:03:00.418Z,0.60
2022-11-12T04:05:47.259Z,1.10
2022-11-12T04:08:35.056Z,0.80
2022-11-12T04:11:03.874Z,0.77
2022-11-12T04:13:32.154Z,0.67
2022-11-12T04:16:24.355Z,0.90
2022-11-12T04:19:12.108Z,0.70
2022-11-12T04:21:51.663Z,0.80
2022-11-12T04:24:38.911Z,0.70
2022-11-12T04:27:08.297Z,1.43
2022-11-12T04:29:53.434Z,0.70
2022-11-12T04:32:21.575Z,0.70
2022-11-12T04:34:49.594Z,0.50
2022-11-12T04:37:23.314Z,0.80
2022-11-12T04:39:52.022Z,1.00
2022-11-12T04:42:38.455Z,0.80
2022-11-12T04:45:08.544Z,0.63
2022-11-12T04:47:38.065Z,0.87
2022-11-12T04:50:08.727Z,0.60
2022-11-12T04:52:38.050Z,0.67
2022-11-12T04:55:07.137Z,0.90
2022-11-12T04:57:35.154Z,0.63
2022-11-12T05:00:03.747Z,0.87
2022-11-12T05:02:31.726Z,0.60
2022-11-12T05:04:59.665Z,1.27
2022-11-12T05:07:27.598Z,0.97
2022-11-12T05:09:56.911Z,1.03
2022-11-12T05:12:24.859Z,0.70
2022-11-12T05:14:52.794Z,0.70
2022-11-12T05:17:20.741Z,1.90
2022-11-12T05:19:48.689Z,0.63
2022-11-12T05:22:40.408Z,0.50
2022-11-12T05:25:06.900Z,0.60
2022-11-12T05:27:35.338Z,0.60
2022-11-12T05:30:03.510Z,0.60
2022-11-12T05:32:31.451Z,0.70
2022-11-12T05:34:59.377Z,0.60
2022-11-12T05:37:27.354Z,1.23
2022-11-12T05:39:55.290Z,0.67
2022-11-12T05:42:24.608Z,0.90
2022-11-12T05:44:52.519Z,0.47
2022-11-12T05:47:20.478Z,1.33
2022-11-12T05:49:48.412Z,0.67
2022-11-12T05:52:16.357Z,1.27
2022-11-12T05:54:44.282Z,0.77
2022-11-12T05:57:12.202Z,0.47
2022-11-12T05:59:41.466Z,0.60
2022-11-12T06:02:09.422Z,0.60
2022-11-12T06:04:37.401Z,0.73
2022-11-12T06:07:05.405Z,0.60
2022-11-12T06:09:33.405Z,0.60
2022-11-12T06:12:02.456Z,0.80
2022-11-12T06:14:30.413Z,0.57
2022-11-12T06:16:59.707Z,0.63
2022-11-12T06:19:27.651Z,0.60
2022-11-12T06:21:55.589Z,0.57
2022-11-12T06:24:23.719Z,0.57
2022-11-12T06:26:51.674Z,0.50
2022-11-12T06:29:19.606Z,0.50
2022-11-12T06:31:47.742Z,0.50
2022-11-12T06:34:17.027Z,0.53
2022-11-12T06:36:44.951Z,0.80
2022-11-12T06:39:13.312Z,0.83
2022-11-12T06:41:41.296Z,0.50
2022-11-12T06:44:09.260Z,0.70
2022-11-12T06:46:37.230Z,0.87
2022-11-12T06:49:05.197Z,0.60
2022-11-12T06:51:34.497Z,0.60
2022-11-12T06:54:02.448Z,0.57
2022-11-12T06:56:30.439Z,0.63
2022-11-12T06:58:58.558Z,0.63
2022-11-12T07:01:26.529Z,1.00
2022-11-12T07:03:54.994Z,1.03
2022-11-12T07:06:23.080Z,1.00
2022-11-12T07:08:52.438Z,1.00
2022-11-12T07:11:21.257Z,1.27
2022-11-12T07:13:49.668Z,0.60
2022-11-12T07:16:18.819Z,0.60
2022-11-12T07:18:47.998Z,0.70
2022-11-12T07:21:17.702Z,0.90
2022-11-12T07:23:47.238Z,0.70
2022-11-12T07:26:18.817Z,0.80
2022-11-12T07:28:47.527Z,1.00
2022-11-12T07:31:16.995Z,0.70
2022-11-12T07:33:45.942Z,1.13
2022-11-12T07:36:16.109Z,0.70
2022-11-12T07:38:45.308Z,0.77
2022-11-12T07:41:15.181Z,0.87
2022-11-12T07:43:46.263Z,1.00
2022-11-12T07:46:17.187Z,1.00
2022-11-12T07:48:46.223Z,0.80
2022-11-12T07:51:16.207Z,0.67
2022-11-12T07:53:45.067Z,0.90
2022-11-12T07:56:14.528Z,0.50
2022-11-12T07:58:43.900Z,0.70
2022-11-12T08:01:16.652Z,0.60
2022-11-12T08:03:44.577Z,0.60
2022-11-12T08:06:12.473Z,0.80
2022-11-12T08:08:40.557Z,0.70
2022-11-12T08:11:08.447Z,0.83
2022-11-12T08:13:36.330Z,0.63
2022-11-12T08:16:06.125Z,0.67
2022-11-12T08:18:34.165Z,0.90
2022-11-12T08:21:02.865Z,1.03
2022-11-12T08:23:31.485Z,0.97
2022-11-12T08:26:00.282Z,0.83
2022-11-12T08:28:30.484Z,0.80
2022-11-12T08:30:59.412Z,0.70
2022-11-12T08:33:28.870Z,0.60
2022-11-12T08:35:56.900Z,1.00
2022-11-12T08:38:25.152Z,0.80
2022-11-12T08:40:53.459Z,1.50
2022-11-12T08:43:21.414Z,1.50
2022-11-12T08:45:50.163Z,0.70
2022-11-12T08:48:18.159Z,0.93
2022-11-12T08:50:47.449Z,0.80
2022-11-12T08:53:15.422Z,0.90
2022-11-12T08:55:43.350Z,0.73
2022-11-12T08:58:11.374Z,1.00
2022-11-12T09:00:42.143Z,1.33
2022-11-12T09:03:15.146Z,0.80
2022-11-12T09:05:43.523Z,0.77
2022-11-12T09:08:15.865Z,0.70
2022-11-12T09:10:43.931Z,1.07
2022-11-12T09:13:12.303Z,1.07
2022-11-12T09:15:40.296Z,0.80
2022-11-12T09:18:12.070Z,0.63
2022-11-12T09:20:40.375Z,0.60
2022-11-12T09:23:10.047Z,0.90
2022-11-12T09:25:39.979Z,1.03
2022-11-12T09:28:09.409Z,1.00
2022-11-12T09:30:38.046Z,0.80
2022-11-12T09:33:06.197Z,0.80
2022-11-12T09:35:34.398Z,0.70
2022-11-12T09:38:02.413Z,1.53
2022-11-12T09:40:45.077Z,0.63
2022-11-12T09:43:19.699Z,1.80
2022-11-12T09:46:00.342Z,1.47
2022-11-12T09:48:42.063Z,1.10
2022-11-12T09:51:14.417Z,1.83
2022-11-12T09:53:50.267Z,1.03
2022-11-12T09:56:21.600Z,0.70
2022-11-12T09:58:49.690Z,0.70
2022-11-12T10:01:21.230Z,1.03
2022-11-12T10:04:02.221Z,0.87
2022-11-12T10:06:36.512Z,1.67
2022-11-12T10:09:10.292Z,1.40
2022-11-12T10:12:16.406Z,1.23
2022-11-12T10:15:22.322Z,1.20
2022-11-12T10:17:56.672Z,0.77
2022-11-12T10:20:29.003Z,0.90
2022-11-12T10:23:15.250Z,1.77
2022-11-12T10:25:45.801Z,1.20
2022-11-12T10:28:25.849Z,2.00
2022-11-12T10:30:56.721Z,0.90
2022-11-12T10:33:24.694Z,0.57
2022-11-12T10:35:53.815Z,1.10
2022-11-12T10:38:28.553Z,1.37
2022-11-12T10:40:56.743Z,2.13
2022-11-12T10:43:26.561Z,1.60
2022-11-12T10:46:15.867Z,1.37
2022-11-12T10:48:55.469Z,1.30
2022-11-12T10:51:29.408Z,1.43
2022-11-12T10:53:57.598Z,1.13
2022-11-12T10:56:28.598Z,1.30
2022-11-12T10:59:15.920Z,1.00
2022-11-12T11:01:46.132Z,0.83
2022-11-12T11:04:23.791Z,2.00
2022-11-12T11:07:00.281Z,1.10
2022-11-12T11:09:28.281Z,1.40
2022-11-12T11:11:56.214Z,1.73
2022-11-12T11:14:34.933Z,1.50
2022-11-12T11:17:08.584Z,2.07
2022-11-12T11:19:39.184Z,2.33
2022-11-12T11:22:20.067Z,1.77
2022-11-12T11:24:58.247Z,0.97
2022-11-12T11:27:32.152Z,1.70
2022-11-12T11:30:14.779Z,1.87
2022-11-12T11:33:00.807Z,1.60
2022-11-12T11:35:39.103Z,1.50
2022-11-12T11:38:26.748Z,1.53
2022-11-12T11:41:05.524Z,1.73
2022-11-12T11:43:43.763Z,1.07
2022-11-12T11:46:28.170Z,1.87
2022-11-12T11:49:08.651Z,2.00
2022-11-12T11:51:45.922Z,2.17
2022-11-12T11:54:36.236Z,1.63
2022-11-12T11:57:12.753Z,2.50
2022-11-12T11:59:55.633Z,1.40
2022-11-12T12:03:03.959Z,1.63
2022-11-12T12:05:41.745Z,1.93
2022-11-12T12:08:13.738Z,1.33
2022-11-12T12:11:07.333Z,1.83
2022-11-12T12:13:48.174Z,1.23
2022-11-12T12:16:27.630Z,1.90
2022-11-12T12:19:08.974Z,1.93
2022-11-12T12:21:40.715Z,1.93
2022-11-12T12:24:17.175Z,1.77
2022-11-12T12:26:49.095Z,1.87
2022-11-12T12:29:20.372Z,1.50
2022-11-12T12:31:52.506Z,3.60
2022-11-12T12:34:28.216Z,2.30
2022-11-12T12:37:02.638Z,2.53
2022-11-12T12:39:43.610Z,1.90
2022-11-12T12:42:20.207Z,3.00
2022-11-12T12:45:01.283Z,2.40
2022-11-12T12:47:32.431Z,2.10
2022-11-12T12:50:04.489Z,2.47
2022-11-12T12:52:52.413Z,1.60
2022-11-12T12:55:37.593Z,2.50
2022-11-12T12:58:05.873Z,1.80
2022-11-12T13:00:38.174Z,1.50
2022-11-12T13:03:06.743Z,1.20
2022-11-12T13:05:37.483Z,2.13
2022-11-12T13:08:10.304Z,1.00
2022-11-12T13:10:49.416Z,1.70
2022-11-12T13:13:32.379Z,1.70
2022-11-12T13:16:02.675Z,1.53
2022-11-12T13:18:59.170Z,1.60
2022-11-12T13:21:29.205Z,1.70
2022-11-12T13:24:08.837Z,1.90
2022-11-12T13:27:01.699Z,2.37
2022-11-12T13:29:45.606Z,1.67
2022-11-12T13:32:34.912Z,2.20
2022-11-12T13:35:31.161Z,2.17
2022-11-12T13:38:04.001Z,2.90
2022-11-12T13:40:45.270Z,3.07
2022-11-12T13:43:32.633Z,2.43
2022-11-12T13:46:26.210Z,2.07
2022-11-12T13:49:01.548Z,2.10
2022-11-12T13:51:38.735Z,2.93
2022-11-12T13:54:36.177Z,2.90
2022-11-12T13:57:32.065Z,2.10
2022-11-12T14:00:11.860Z,2.03
2022-11-12T14:02:42.982Z,3.23
2022-11-12T14:05:16.583Z,2.83
2022-11-12T14:07:54.997Z,2.30
2022-11-12T14:10:35.767Z,2.47
2022-11-12T14:13:20.179Z,1.93
2022-11-12T14:16:01.516Z,1.73
2022-11-12T14:18:39.759Z,1.30
2022-11-12T14:21:11.931Z,2.47
2022-11-12T14:23:40.112Z,2.23
2022-11-12T14:26:12.462Z,1.90
2022-11-12T14:28:41.041Z,2.70
2022-11-12T14:31:14.045Z,1.43
2022-11-12T14:33:41.962Z,1.60
2022-11-12T14:36:14.699Z,1.87
2022-11-12T14:38:45.751Z,1.80
2022-11-12T14:41:21.978Z,1.20
2022-11-12T14:44:10.912Z,1.93
2022-11-12T14:46:45.946Z,1.60
2022-11-12T14:49:20.717Z,1.73
2022-11-12T14:51:50.538Z,2.10
2022-11-12T14:54:28.897Z,2.57
2022-11-12T14:56:59.565Z,2.30
2022-11-12T14:59:27.888Z,1.50
2022-11-12T15:02:36.877Z,1.70
2022-11-12T15:05:02.678Z,1.30
2022-11-12T15:07:33.873Z,2.00
2022-11-12T15:10:02.217Z,1.83
2022-11-12T15:12:34.099Z,1.60
2022-11-12T15:15:09.688Z,2.23
2022-11-12T15:17:39.034Z,1.50
2022-11-12T15:20:14.213Z,1.40
2022-11-12T15:22:42.466Z,2.37
2022-11-12T15:25:22.048Z,2.93
2022-11-12T15:27:52.103Z,1.53
2022-11-12T15:30:24.523Z,1.80
2022-11-12T15:33:09.190Z,2.60
2022-11-12T15:35:39.234Z,2.27
2022-11-12T15:38:12.927Z,1.87
2022-11-12T15:40:45.599Z,1.93
2022-11-12T15:43:17.751Z,1.63
2022-11-12T15:45:49.056Z,1.77
2022-11-12T15:48:16.979Z,2.70
2022-11-12T15:50:45.858Z,3.17
2022-11-12T15:53:14.154Z,2.47
2022-11-12T15:55:43.323Z,1.20
2022-11-12T15:58:18.414Z,2.17
2022-11-12T16:00:46.632Z,2.17
2022-11-12T16:03:17.140Z,2.50
2022-11-12T16:05:45.730Z,2.13
2022-11-12T16:08:13.911Z,1.60
2022-11-12T16:10:43.894Z,2.50
2022-11-12T16:13:16.270Z,3.10
2022-11-12T16:15:45.653Z,1.83
2022-11-12T16:18:13.811Z,2.37
2022-11-12T16:20:41.764Z,1.80
2022-11-12T16:23:09.686Z,1.47
2022-11-12T16:25:39.478Z,1.93
2022-11-12T16:28:13.430Z,1.40
2022-11-12T16:30:41.393Z,2.27
2022-11-12T16:33:13.880Z,1.80
2022-11-12T16:35:41.973Z,1.40
2022-11-12T16:38:15.363Z,2.27
2022-11-12T16:40:44.695Z,1.67
2022-11-12T16:43:12.752Z,1.77
2022-11-12T16:45:42.793Z,1.70
2022-11-12T16:48:17.613Z,1.37
2022-11-12T16:50:45.587Z,2.20
2022-11-12T16:53:13.514Z,1.73
2022-11-12T16:55:41.887Z,1.90
2022-11-12T16:58:13.922Z,2.40
2022-11-12T17:00:49.944Z,1.53
2022-11-12T17:03:19.481Z,2.00
2022-11-12T17:05:52.579Z,2.00
2022-11-12T17:08:20.524Z,1.50
2022-11-12T17:10:48.413Z,1.50
2022-11-12T17:13:16.599Z,1.20
2022-11-12T17:15:44.488Z,2.20
2022-11-12T17:18:12.409Z,1.47
2022-11-12T17:20:41.717Z,1.80
2022-11-12T17:23:09.663Z,1.10
2022-11-12T17:25:37.587Z,2.17
2022-11-12T17:28:05.624Z,2.90
2022-11-12T17:30:33.613Z,2.00
2022-11-12T17:33:01.556Z,2.80
2022-11-12T17:35:29.511Z,1.50
2022-11-12T17:37:58.794Z,2.30
2022-11-12T17:40:26.757Z,1.73
2022-11-12T17:42:54.954Z,2.10
2022-11-12T17:45:22.908Z,1.80
2022-11-12T17:47:50.836Z,1.67
2022-11-12T17:50:18.779Z,3.10
2022-11-12T17:52:46.688Z,1.70
2022-11-12T17:55:16.029Z,1.87
2022-11-12T17:57:43.961Z,1.73
2022-11-12T18:00:13.348Z,2.00
2022-11-12T18:02:41.284Z,2.53
2022-11-12T18:05:10.079Z,2.30
2022-11-12T18:07:38.000Z,2.67
2022-11-12T18:10:06.558Z,2.00
2022-11-12T18:12:35.871Z,1.67
2022-11-12T18:15:05.098Z,3.00
2022-11-12T18:17:34.422Z,2.30
2022-11-12T18:20:02.353Z,1.13
2022-11-12T18:22:30.279Z,2.20
2022-11-12T18:24:58.210Z,1.80
2022-11-12T18:27:26.314Z,1.90
2022-11-12T18:29:55.643Z,1.03
2022-11-12T18:32:23.597Z,2.00
2022-11-12T18:34:51.935Z,1.70
2022-11-12T18:37:19.868Z,1.97
2022-11-12T18:39:47.853Z,2.20
2022-11-12T18:42:15.778Z,2.37
2022-11-12T18:44:43.719Z,2.20
2022-11-12T18:47:13.008Z,1.70
2022-11-12T18:49:40.919Z,2.87
2022-11-12T18:52:08.867Z,2.30
2022-11-12T18:54:36.769Z,2.27
2022-11-12T18:57:04.862Z,3.07
2022-11-12T18:59:32.833Z,1.80
2022-11-12T19:02:00.807Z,1.90
2022-11-12T19:04:30.177Z,3.17
2022-11-12T19:06:58.158Z,1.80
2022-11-12T19:09:26.100Z,3.23
2022-11-12T19:11:54.087Z,2.60
2022-11-12T19:14:23.594Z,1.80
2022-11-12T19:16:51.711Z,3.17
2022-11-12T19:19:19.763Z,1.20
2022-11-12T19:21:49.374Z,2.00
2022-11-12T19:24:17.592Z,1.80
2022-11-12T19:26:45.507Z,2.10
2022-11-12T19:29:13.428Z,1.83
2022-11-12T19:31:41.353Z,2.33
2022-11-12T19:34:09.401Z,2.30
2022-11-12T19:36:37.305Z,2.50
2022-11-12T19:39:06.692Z,2.13
2022-11-12T19:41:34.592Z,2.50
2022-11-12T19:44:02.573Z,1.03
2022-11-12T19:46:31.746Z,2.40
2022-11-12T19:48:59.891Z,1.40
2022-11-12T19:51:28.372Z,0.90
2022-11-12T19:53:56.354Z,1.50
2022-11-12T19:56:26.219Z,2.90
2022-11-12T19:58:55.030Z,4.07
2022-11-12T20:01:23.177Z,1.47
2022-11-12T20:03:51.247Z,1.70
2022-11-12T20:06:20.945Z,1.93
2022-11-12T20:08:48.857Z,2.20
2022-11-12T20:11:18.828Z,3.43
2022-11-12T20:13:48.163Z,1.90
2022-11-12T20:16:23.937Z,2.20
2022-11-12T20:18:55.456Z,2.30
2022-11-12T20:21:23.596Z,1.80
2022-11-12T20:23:51.506Z,2.57
2022-11-12T20:26:19.491Z,3.17
2022-11-12T20:28:48.801Z,2.30
2022-11-12T20:31:20.387Z,1.70
2022-11-12T20:33:49.784Z,1.70
2022-11-12T20:36:20.210Z,1.87
2022-11-12T20:38:49.963Z,1.63
2022-11-12T20:41:19.566Z,1.50
2022-11-12T20:43:52.526Z,1.93
2022-11-12T20:46:20.456Z,1.70
2022-11-12T20:48:48.434Z,3.70
2022-11-12T20:51:24.372Z,2.57
2022-11-12T20:53:59.230Z,2.43
2022-11-12T20:56:29.929Z,1.47
2022-11-12T20:58:59.502Z,2.20
2022-11-12T21:01:29.149Z,1.53
2022-11-12T21:03:57.842Z,2.30
2022-11-12T21:06:27.520Z,1.10
2022-11-12T21:08:55.453Z,2.83
2022-11-12T21:11:23.815Z,1.37
2022-11-12T21:13:51.768Z,1.40
2022-11-12T21:16:21.070Z,1.40
2022-11-12T21:18:49.016Z,1.30
2022-11-12T21:21:20.993Z,1.40
2022-11-12T21:23:50.385Z,1.90
2022-11-12T21:26:20.026Z,3.20
2022-11-12T21:28:49.893Z,1.50
2022-11-12T21:31:20.586Z,1.20
2022-11-12T21:33:51.115Z,1.37
2022-11-12T21:36:20.147Z,1.37
2022-11-12T21:38:48.514Z,1.07
2022-11-12T21:41:17.903Z,1.80
2022-11-12T21:43:46.797Z,1.83
2022-11-12T21:46:16.440Z,2.00
2022-11-12T21:48:45.967Z,1.00
2022-11-12T21:51:16.468Z,1.50
2022-11-12T21:53:44.880Z,1.00
2022-11-12T21:56:14.496Z,1.73
2022-11-12T21:58:43.253Z,1.37
2022-11-12T22:01:13.071Z,0.90
2022-11-12T22:03:41.283Z,1.50
2022-11-12T22:06:11.073Z,0.97
2022-11-12T22:08:39.041Z,1.23
2022-11-12T22:11:08.371Z,1.40
2022-11-12T22:13:36.800Z,0.80
2022-11-12T22:16:09.371Z,0.90
2022-11-12T22:18:38.265Z,2.63
2022-11-12T22:21:08.379Z,1.03
2022-11-12T22:23:37.887Z,1.77
2022-11-12T22:26:08.307Z,1.27
2022-11-12T22:28:36.531Z,1.37
2022-11-12T22:31:05.568Z,0.80
2022-11-12T22:33:33.640Z,1.10
2022-11-12T22:36:06.426Z,0.90
2022-11-12T22:38:37.474Z,1.70
2022-11-12T22:41:07.131Z,0.80
2022-11-12T22:43:36.702Z,1.47
2022-11-12T22:46:06.204Z,1.80
2022-11-12T22:48:34.348Z,1.70
2022-11-12T22:51:03.185Z,1.00
2022-11-12T22:53:31.719Z,2.10
2022-11-12T22:56:04.889Z,0.83
2022-11-12T22:58:36.264Z,0.90
2022-11-12T23:01:04.572Z,1.00
2022-11-12T23:03:32.743Z,0.87
2022-11-12T23:06:03.138Z,1.33
2022-11-12T23:08:31.979Z,1.30
2022-11-12T23:11:05.465Z,1.00
2022-11-12T23:13:33.958Z,0.70
2022-11-12T23:16:02.855Z,1.03
2022-11-12T23:18:30.956Z,0.83
2022-11-12T23:21:03.481Z,0.93
2022-11-12T23:23:31.455Z,1.50
2022-11-12T23:26:05.422Z,1.03
2022-11-12T23:28:34.850Z,0.70
2022-11-12T23:31:02.932Z,1.07
2022-11-12T23:33:30.858Z,0.97
2022-11-12T23:36:05.786Z,1.50
2022-11-12T23:38:33.834Z,0.77
2022-11-12T23:41:02.649Z,1.40
2022-11-12T23:43:32.540Z,1.73
2022-11-12T23:46:00.487Z,1.37
2022-11-12T23:48:29.005Z,1.03
2022-11-12T23:51:04.214Z,2.30
2022-11-12T23:53:33.729Z,1.37
2022-11-12T23:56:02.380Z,2.00
2022-11-12T23:58:32.149Z,1.17
